createdAt,value
2018-05-18T00:01:46.147Z,19.83
2018-05-18T00:04:24.355Z,18.77
2018-05-18T00:07:12.125Z,16.17
2018-05-18T00:09:51.304Z,15.77
2018-05-18T00:12:29.689Z,16.77
2018-05-18T00:15:10.273Z,18.17
2018-05-18T00:18:02.328Z,16.77
2018-05-18T00:20:47.465Z,15.93
2018-05-18T00:23:33.874Z,15.03
2018-05-18T00:26:18.871Z,14.07
2018-05-18T00:29:03.187Z,18.67
2018-05-18T00:32:02.547Z,13.70
2018-05-18T00:37:32.091Z,17.60
2018-05-18T00:40:12.252Z,16.10
2018-05-18T00:43:02.896Z,22.63
2018-05-18T00:45:54.498Z,28.40
2018-05-18T00:48:34.200Z,28.40
2018-05-18T00:51:19.186Z,27.23
2018-05-18T00:54:15.200Z,24.10
2018-05-18T00:56:53.193Z,17.40
2018-05-18T00:59:31.468Z,19.60
2018-05-18T01:02:07.502Z,13.53
2018-05-18T01:04:43.365Z,17.63
2018-05-18T01:07:19.626Z,15.20
2018-05-18T01:09:56.187Z,14.23
2018-05-18T01:12:31.998Z,16.43
2018-05-18T01:15:07.978Z,17.77
2018-05-18T01:17:43.808Z,15.13
2018-05-18T01:20:19.857Z,15.83
2018-05-18T01:22:57.376Z,17.03
2018-05-18T01:25:33.211Z,14.90
2018-05-18T01:28:09.933Z,13.67
2018-05-18T01:30:45.959Z,23.00
2018-05-18T01:33:21.881Z,15.03
2018-05-18T01:35:57.717Z,16.30
2018-05-18T01:38:33.765Z,15.53
2018-05-18T01:41:09.620Z,21.97
2018-05-18T01:43:45.459Z,19.43
2018-05-18T01:46:21.725Z,20.10
2018-05-18T01:48:57.496Z,19.07
2018-05-18T01:51:34.158Z,18.20
2018-05-18T01:54:10.890Z,18.90
2018-05-18T01:56:48.016Z,17.20
2018-05-18T01:59:24.769Z,14.77
2018-05-18T02:02:00.657Z,18.10
2018-05-18T02:04:36.957Z,20.07
2018-05-18T02:07:12.708Z,13.90
2018-05-18T02:09:48.670Z,16.97
2018-05-18T02:12:24.647Z,15.70
2018-05-18T02:15:01.270Z,13.77
2018-05-18T02:17:38.247Z,20.37
2018-05-18T02:20:14.120Z,17.27
2018-05-18T02:22:50.800Z,11.77
2018-05-18T02:25:27.180Z,15.27
2018-05-18T02:28:03.713Z,17.63
2018-05-18T02:30:39.712Z,17.27
2018-05-18T02:33:15.845Z,14.23
2018-05-18T02:35:51.719Z,14.87
2018-05-18T02:38:27.804Z,13.03
2018-05-18T02:41:03.935Z,14.30
2018-05-18T02:43:39.682Z,12.83
2018-05-18T02:46:15.581Z,16.57
2018-05-18T02:48:52.604Z,13.77
2018-05-18T02:51:28.740Z,15.23
2018-05-18T02:54:05.562Z,14.87
2018-05-18T02:56:41.630Z,15.20
2018-05-18T02:59:17.560Z,14.27
2018-05-18T03:01:54.596Z,16.37
2018-05-18T03:04:30.928Z,21.33
2018-05-18T03:07:06.984Z,13.07
2018-05-18T03:09:42.797Z,14.07
2018-05-18T03:12:20.080Z,14.87
2018-05-18T03:14:56.050Z,16.47
2018-05-18T03:17:31.925Z,17.70
2018-05-18T03:20:08.903Z,16.73
2018-05-18T03:22:44.843Z,17.13
2018-05-18T03:25:20.686Z,18.93
2018-05-18T03:27:57.011Z,16.87
2018-05-18T03:30:33.212Z,17.63
2018-05-18T03:33:09.050Z,14.17
2018-05-18T03:35:45.206Z,15.00
2018-05-18T03:38:21.059Z,13.10
2018-05-18T03:40:58.683Z,15.97
2018-05-18T03:43:35.526Z,15.93
2018-05-18T03:46:11.483Z,15.97
2018-05-18T03:48:48.199Z,13.20
2018-05-18T03:51:24.355Z,21.10
2018-05-18T03:54:00.700Z,16.63
2018-05-18T03:56:37.358Z,18.93
2018-05-18T03:59:13.392Z,24.40
2018-05-18T04:04:01.396Z,14.87
2018-05-18T04:07:55.399Z,15.77
2018-05-18T04:10:31.353Z,16.53
2018-05-18T04:13:07.151Z,19.27
2018-05-18T04:15:43.487Z,20.63
2018-05-18T04:18:19.637Z,14.33
2018-05-18T04:20:56.406Z,16.07
2018-05-18T04:23:32.650Z,14.97
2018-05-18T04:26:08.534Z,15.87
2018-05-18T04:28:45.041Z,17.30
2018-05-18T04:31:21.369Z,16.33
2018-05-18T04:33:58.171Z,15.40
2018-05-18T04:36:34.145Z,18.83
2018-05-18T04:39:11.178Z,17.07
2018-05-18T04:41:47.243Z,14.53
2018-05-18T04:44:23.343Z,15.63
2018-05-18T04:46:59.596Z,12.70
2018-05-18T04:49:35.629Z,14.70
2018-05-18T04:52:12.332Z,11.83
2018-05-18T04:54:49.953Z,15.30
2018-05-18T04:57:25.864Z,12.47
2018-05-18T05:00:01.870Z,12.90
2018-05-18T05:02:37.931Z,18.27
2018-05-18T05:05:14.189Z,12.23
2018-05-18T05:07:51.730Z,13.10
2018-05-18T05:10:28.796Z,17.07
2018-05-18T05:13:05.112Z,15.57
2018-05-18T05:15:40.875Z,16.67
2018-05-18T05:18:17.488Z,15.13
2018-05-18T05:20:53.798Z,11.17
2018-05-18T05:23:29.899Z,16.23
2018-05-18T05:26:06.171Z,14.83
2018-05-18T05:28:42.919Z,13.57
2018-05-18T05:31:19.779Z,13.23
2018-05-18T05:33:57.061Z,15.27
2018-05-18T05:36:33.431Z,11.77
2018-05-18T05:39:09.521Z,14.60
2018-05-18T05:41:46.435Z,12.63
2018-05-18T05:44:22.659Z,13.90
2018-05-18T05:46:58.925Z,13.80
2018-05-18T05:49:35.128Z,13.90
2018-05-18T05:52:12.549Z,12.93
2018-05-18T05:54:49.475Z,13.10
2018-05-18T05:57:26.804Z,14.33
2018-05-18T06:00:02.748Z,12.97
2018-05-18T06:02:38.745Z,9.93
2018-05-18T06:05:14.973Z,12.37
2018-05-18T06:07:50.999Z,11.80
2018-05-18T06:10:27.003Z,18.40
2018-05-18T06:13:03.092Z,9.13
2018-05-18T06:15:39.438Z,13.07
2018-05-18T06:18:15.510Z,10.60
2018-05-18T06:20:52.347Z,14.07
2018-05-18T06:23:28.732Z,13.03
2018-05-18T06:26:04.812Z,15.47
2018-05-18T06:28:41.560Z,12.47
2018-05-18T06:31:18.077Z,16.23
2018-05-18T06:33:54.122Z,10.17
2018-05-18T06:36:30.767Z,9.90
2018-05-18T06:39:07.746Z,17.60
2018-05-18T06:41:43.798Z,11.23
2018-05-18T06:44:20.095Z,11.70
2018-05-18T06:46:57.147Z,10.80
2018-05-18T06:49:34.016Z,14.70
2018-05-18T06:52:10.774Z,11.27
2018-05-18T06:54:47.167Z,9.97
2018-05-18T06:57:23.344Z,12.20
2018-05-18T06:59:59.505Z,13.27
2018-05-18T07:02:36.609Z,10.63
2018-05-18T07:05:12.793Z,12.27
2018-05-18T07:07:48.590Z,10.70
2018-05-18T07:10:24.968Z,10.83
2018-05-18T07:13:02.158Z,13.07
2018-05-18T07:15:38.353Z,13.20
2018-05-18T07:18:14.796Z,13.33
2018-05-18T07:20:50.803Z,13.70
2018-05-18T07:23:27.506Z,12.20
2018-05-18T07:26:04.831Z,8.60
2018-05-18T07:28:41.138Z,11.17
2018-05-18T07:31:17.266Z,9.00
2018-05-18T07:33:53.972Z,8.70
2018-05-18T07:36:30.276Z,10.67
2018-05-18T07:39:06.836Z,15.60
2018-05-18T07:41:43.322Z,11.23
2018-05-18T07:44:19.339Z,13.97
2018-05-18T07:46:57.312Z,12.57
2018-05-18T07:49:33.357Z,12.33
2018-05-18T07:52:10.430Z,9.13
2018-05-18T07:54:47.676Z,10.57
2018-05-18T07:57:23.711Z,11.60
2018-05-18T08:00:01.243Z,13.23
2018-05-18T08:02:37.881Z,13.87
2018-05-18T08:05:13.863Z,11.87
2018-05-18T08:07:50.946Z,10.57
2018-05-18T08:10:28.070Z,11.37
2018-05-18T08:13:04.711Z,11.50
2018-05-18T08:15:41.054Z,10.77
2018-05-18T08:18:18.382Z,11.13
2018-05-18T08:20:54.410Z,10.37
2018-05-18T08:23:39.434Z,14.37
2018-05-18T08:26:15.419Z,11.37
2018-05-18T08:29:01.715Z,9.57
2018-05-18T08:31:37.639Z,10.50
2018-05-18T08:34:13.810Z,12.30
2018-05-18T08:36:50.053Z,8.83
2018-05-18T08:39:26.872Z,14.07
2018-05-18T08:42:03.921Z,7.43
2018-05-18T08:44:41.472Z,9.47
2018-05-18T08:47:17.368Z,9.57
2018-05-18T08:49:53.483Z,12.00
2018-05-18T08:52:30.418Z,10.40
2018-05-18T08:55:07.193Z,13.37
2018-05-18T08:57:43.074Z,12.33
2018-05-18T09:00:19.316Z,10.90
2018-05-18T09:02:56.342Z,13.13
2018-05-18T09:05:33.086Z,9.27
2018-05-18T09:08:09.151Z,11.83
2018-05-18T09:10:45.980Z,11.87
2018-05-18T09:13:24.334Z,8.90
2018-05-18T09:16:00.472Z,12.37
2018-05-18T09:18:37.179Z,12.33
2018-05-18T09:21:13.463Z,9.97
2018-05-18T09:23:49.639Z,12.60
2018-05-18T09:26:26.394Z,9.53
2018-05-18T09:29:03.747Z,8.70
2018-05-18T09:31:39.759Z,9.83
2018-05-18T09:34:15.572Z,9.77
2018-05-18T09:36:51.952Z,7.33
2018-05-18T09:39:27.952Z,10.73
2018-05-18T09:42:03.978Z,8.77
2018-05-18T09:44:40.689Z,9.83
2018-05-18T09:47:16.672Z,11.17
2018-05-18T09:49:53.457Z,9.30
2018-05-18T09:52:29.573Z,11.43
2018-05-18T09:55:07.111Z,9.80
2018-05-18T09:57:43.081Z,11.20
2018-05-18T10:00:19.544Z,7.57
2018-05-18T10:02:56.358Z,11.40
2018-05-18T10:05:33.172Z,7.43
2018-05-18T10:08:09.707Z,11.43
2018-05-18T10:10:45.451Z,9.13
2018-05-18T10:13:21.904Z,9.70
2018-05-18T10:15:57.800Z,8.50
2018-05-18T10:18:34.835Z,8.87
2018-05-18T10:21:10.412Z,11.07
2018-05-18T10:23:46.584Z,12.70
2018-05-18T10:26:22.276Z,11.00
2018-05-18T10:28:59.005Z,8.47
2018-05-18T10:31:36.873Z,9.97
2018-05-18T10:34:13.345Z,9.17
2018-05-18T10:36:49.512Z,8.20
2018-05-18T10:39:27.107Z,10.93
2018-05-18T10:42:05.151Z,9.93
2018-05-18T10:44:41.114Z,10.17
2018-05-18T10:47:17.605Z,9.77
2018-05-18T10:49:54.472Z,10.53
2018-05-18T10:52:30.659Z,11.57
2018-05-18T10:55:07.901Z,12.47
2018-05-18T10:57:44.170Z,11.97
2018-05-18T11:00:21.817Z,11.40
2018-05-18T11:02:58.802Z,9.00
2018-05-18T11:05:34.638Z,12.70
2018-05-18T11:08:13.250Z,10.07
2018-05-18T11:10:49.572Z,11.80
2018-05-18T11:13:27.365Z,15.37
2018-05-18T11:16:03.905Z,10.87
2018-05-18T11:18:42.807Z,9.97
2018-05-18T11:21:21.084Z,13.67
2018-05-18T11:23:57.330Z,10.13
2018-05-18T11:26:34.255Z,11.97
2018-05-18T11:29:10.782Z,13.23
2018-05-18T11:31:47.350Z,9.93
2018-05-18T11:34:23.527Z,9.53
2018-05-18T11:37:00.548Z,14.67
2018-05-18T11:39:36.646Z,12.13
2018-05-18T11:42:12.855Z,12.00
2018-05-18T11:44:49.771Z,13.07
2018-05-18T11:47:28.042Z,9.67
2018-05-18T11:50:06.003Z,10.77
2018-05-18T11:52:43.306Z,13.23
2018-05-18T11:55:19.742Z,13.70
2018-05-18T11:57:57.189Z,13.87
2018-05-18T12:00:34.409Z,11.93
2018-05-18T12:03:10.741Z,10.97
2018-05-18T12:05:48.118Z,9.10
2018-05-18T12:08:25.166Z,13.43
2018-05-18T12:11:01.282Z,10.10
2018-05-18T12:13:39.298Z,11.70
2018-05-18T12:16:16.646Z,10.80
2018-05-18T12:18:53.000Z,10.73
2018-05-18T12:21:29.728Z,8.70
2018-05-18T12:24:06.332Z,13.30
2018-05-18T12:26:43.228Z,11.93
2018-05-18T12:29:19.871Z,10.77
2018-05-18T12:31:57.132Z,10.03
2018-05-18T12:34:33.799Z,14.57
2018-05-18T12:37:10.394Z,12.00
2018-05-18T12:39:46.894Z,8.33
2018-05-18T12:42:23.053Z,17.03
2018-05-18T12:44:59.438Z,10.83
2018-05-18T12:47:36.381Z,12.17
2018-05-18T12:50:12.829Z,13.97
2018-05-18T12:52:52.036Z,10.30
2018-05-18T12:55:29.619Z,11.07
2018-05-18T12:58:08.511Z,12.27
2018-05-18T13:00:45.038Z,11.57
2018-05-18T13:03:22.105Z,10.43
2018-05-18T13:05:58.983Z,9.87
2018-05-18T13:08:36.142Z,11.67
2018-05-18T13:11:13.269Z,10.97
2018-05-18T13:13:49.627Z,12.90
2018-05-18T13:16:27.805Z,11.60
2018-05-18T13:19:05.268Z,11.93
2018-05-18T13:21:41.279Z,14.43
2018-05-18T13:24:17.867Z,11.13
2018-05-18T13:26:54.001Z,11.13
2018-05-18T13:29:31.015Z,17.03
2018-05-18T13:32:07.798Z,14.97
2018-05-18T13:34:44.181Z,10.73
2018-05-18T13:37:20.281Z,10.67
2018-05-18T13:39:57.063Z,12.37
2018-05-18T13:42:33.178Z,12.43
2018-05-18T13:45:09.595Z,12.27
2018-05-18T13:47:46.449Z,11.27
2018-05-18T13:50:23.189Z,11.53
2018-05-18T13:53:00.424Z,14.23
2018-05-18T13:55:37.191Z,12.37
2018-05-18T13:58:13.418Z,11.90
2018-05-18T14:00:50.065Z,14.83
2018-05-18T14:03:28.451Z,12.90
2018-05-18T14:06:07.195Z,13.00
2018-05-18T14:08:43.143Z,13.60
2018-05-18T14:11:19.980Z,10.97
2018-05-18T14:14:01.278Z,13.70
2018-05-18T14:16:37.520Z,13.67
2018-05-18T14:19:14.370Z,13.60
2018-05-18T14:21:50.481Z,13.43
2018-05-18T14:24:27.847Z,10.87
2018-05-18T14:27:06.005Z,14.30
2018-05-18T14:29:44.209Z,15.97
2018-05-18T14:32:23.937Z,13.80
2018-05-18T14:35:01.943Z,12.57
2018-05-18T14:37:38.973Z,11.03
2018-05-18T14:40:15.340Z,14.60
2018-05-18T14:42:51.393Z,12.33
2018-05-18T14:45:28.089Z,14.00
2018-05-18T14:48:04.191Z,10.57
2018-05-18T14:50:40.510Z,15.30
2018-05-18T14:53:17.078Z,16.87
2018-05-18T14:55:54.094Z,12.20
2018-05-18T14:58:30.408Z,13.40
2018-05-18T15:01:06.817Z,10.93
2018-05-18T15:03:43.076Z,14.07
2018-05-18T15:06:19.542Z,11.57
2018-05-18T15:08:56.083Z,11.23
2018-05-18T15:11:32.555Z,12.00
2018-05-18T15:14:08.608Z,12.47
2018-05-18T15:16:46.988Z,14.07
2018-05-18T15:19:23.286Z,12.50
2018-05-18T15:22:00.312Z,13.63
2018-05-18T15:24:37.097Z,13.57
2018-05-18T15:27:13.409Z,10.87
2018-05-18T15:29:49.398Z,11.97
2018-05-18T15:32:25.768Z,10.47
2018-05-18T15:35:03.222Z,13.50
2018-05-18T15:37:39.617Z,13.10
2018-05-18T15:40:15.717Z,13.47
2018-05-18T15:42:51.850Z,11.57
2018-05-18T15:45:28.870Z,12.90
2018-05-18T15:48:06.231Z,13.27
2018-05-18T15:50:44.062Z,16.40
2018-05-18T15:53:21.030Z,9.87
2018-05-18T15:55:59.320Z,14.40
2018-05-18T15:58:35.419Z,12.37
2018-05-18T16:01:11.511Z,12.23
2018-05-18T16:03:48.267Z,14.53
2018-05-18T16:06:24.429Z,13.47
2018-05-18T16:09:01.219Z,11.80
2018-05-18T16:11:37.334Z,15.23
2018-05-18T16:14:14.253Z,13.60
2018-05-18T16:16:51.303Z,12.90
2018-05-18T16:19:27.542Z,11.50
2018-05-18T16:22:03.619Z,17.73
2018-05-18T16:24:39.988Z,15.57
2018-05-18T16:27:16.959Z,14.87
2018-05-18T16:29:52.893Z,11.87
2018-05-18T16:32:29.140Z,13.47
2018-05-18T16:35:06.135Z,11.73
2018-05-18T16:37:42.434Z,13.13
2018-05-18T16:40:18.641Z,14.37
2018-05-18T16:42:55.151Z,11.87
2018-05-18T16:45:31.940Z,13.70
2018-05-18T16:48:08.002Z,11.03
2018-05-18T16:50:44.284Z,13.40
2018-05-18T16:53:20.298Z,12.30
2018-05-18T16:55:56.277Z,11.03
2018-05-18T16:58:34.009Z,9.37
2018-05-18T17:01:10.035Z,14.03
2018-05-18T17:03:46.140Z,13.77
2018-05-18T17:06:22.537Z,13.03
2018-05-18T17:08:58.649Z,16.73
2018-05-18T17:11:36.135Z,13.93
2018-05-18T17:14:12.459Z,15.73
2018-05-18T17:16:49.389Z,12.50
2018-05-18T17:19:25.768Z,14.07
2018-05-18T17:22:02.233Z,11.27
2018-05-18T17:24:39.238Z,11.30
2018-05-18T17:27:15.442Z,11.97
2018-05-18T17:29:52.552Z,15.63
2018-05-18T17:32:28.482Z,17.30
2018-05-18T17:35:04.749Z,14.53
2018-05-18T17:37:41.040Z,15.33
2018-05-18T17:40:18.207Z,14.53
2018-05-18T17:42:55.474Z,11.60
2018-05-18T17:45:31.872Z,12.57
2018-05-18T17:48:07.786Z,10.67
2018-05-18T17:50:44.584Z,12.93
2018-05-18T17:53:21.721Z,11.23
2018-05-18T17:55:57.815Z,14.13
2018-05-18T17:58:33.863Z,14.73
2018-05-18T18:01:10.753Z,12.03
2018-05-18T18:03:46.775Z,12.40
2018-05-18T18:06:23.718Z,17.50
2018-05-18T18:09:01.528Z,16.97
2018-05-18T18:11:38.351Z,13.20
2018-05-18T18:14:14.568Z,15.70
2018-05-18T18:16:51.477Z,14.90
2018-05-18T18:19:28.439Z,14.30
2018-05-18T18:22:05.757Z,13.87
2018-05-18T18:24:41.838Z,12.83
2018-05-18T18:27:17.954Z,14.03
2018-05-18T18:29:54.330Z,13.50
2018-05-18T18:32:30.268Z,12.70
2018-05-18T18:35:07.316Z,11.93
2018-05-18T18:37:43.457Z,13.07
2018-05-18T18:40:19.453Z,14.83
2018-05-18T18:42:56.661Z,14.10
2018-05-18T18:45:32.969Z,18.90
2018-05-18T18:48:09.030Z,12.73
2018-05-18T18:50:45.697Z,12.70
2018-05-18T18:53:23.204Z,13.50
2018-05-18T18:55:59.124Z,12.97
2018-05-18T18:58:35.956Z,11.87
2018-05-18T19:01:12.322Z,10.60
2018-05-18T19:03:49.505Z,12.33
2018-05-18T19:06:25.802Z,10.73
2018-05-18T19:09:02.613Z,12.30
2018-05-18T19:11:38.822Z,12.77
2018-05-18T19:14:14.948Z,10.73
2018-05-18T19:16:52.464Z,10.03
2018-05-18T19:19:29.154Z,16.60
2018-05-18T19:22:05.191Z,9.47
2018-05-18T19:24:41.258Z,13.60
2018-05-18T19:27:17.425Z,13.37
2018-05-18T19:29:53.624Z,17.00
2018-05-18T19:32:30.669Z,12.50
2018-05-18T19:35:07.315Z,14.57
2018-05-18T19:37:43.399Z,11.47
2018-05-18T19:40:19.742Z,16.93
2018-05-18T19:42:55.766Z,14.77
2018-05-18T19:45:32.237Z,21.47
2018-05-18T19:48:09.905Z,15.07
2018-05-18T19:50:46.104Z,15.43
2018-05-18T19:53:22.712Z,14.17
2018-05-18T19:55:58.704Z,20.73
2018-05-18T19:58:35.009Z,18.87
2018-05-18T20:01:12.136Z,16.43
2018-05-18T20:04:13.284Z,17.47
2018-05-18T20:06:50.089Z,20.40
2018-05-18T20:12:41.425Z,24.20
2018-05-18T20:15:28.037Z,12.90
2018-05-18T20:18:17.530Z,13.50
2018-05-18T20:24:14.064Z,18.83
2018-05-18T20:27:17.817Z,19.63
2018-05-18T22:35:11.148Z,23.37
2018-05-18T22:38:00.676Z,20.93
2018-05-18T22:40:51.789Z,23.10
2018-05-18T22:43:41.045Z,21.30
2018-05-18T22:46:27.851Z,20.33
2018-05-18T22:49:17.239Z,25.00
2018-05-18T22:55:17.254Z,24.37
2018-05-18T22:58:05.540Z,25.17
2018-05-18T23:00:50.194Z,25.33
2018-05-18T23:03:44.170Z,26.17
2018-05-18T23:09:37.924Z,24.03
2018-05-18T23:12:29.867Z,25.10
2018-05-18T23:15:30.520Z,26.83
2018-05-18T23:18:31.865Z,27.73
2018-05-18T23:21:09.678Z,26.00
2018-05-18T23:26:56.510Z,25.63
2018-05-18T23:32:32.015Z,24.13
2018-05-18T23:35:18.267Z,33.43
2018-05-18T23:38:06.080Z,27.50
2018-05-18T23:40:46.899Z,22.10
2018-05-18T23:43:33.930Z,25.63
2018-05-18T23:46:14.466Z,28.30
2018-05-18T23:49:04.906Z,27.47
2018-05-18T23:51:52.290Z,26.33
2018-05-18T23:54:36.859Z,30.07
2018-05-18T23:57:23.691Z,22.67
